sensor_id;sensor_type;location;lat;lon;timestamp;pressure;altitude;pressure_sealevel;temperature;humidity
9750;BME280;4914;43.218;27.908;2023-01-26T00:00:01;101773.75;;;3.62;100.00
9750;BME280;4914;43.218;27.908;2023-01-26T00:02:29;101768.50;;;3.62;100.00
9750;BME280;4914;43.218;27.908;2023-01-26T00:04:56;101758.28;;;3.53;100.00
9750;BME280;4914;43.218;27.908;2023-01-26T00:07:22;101768.38;;;3.66;100.00
9750;BME280;4914;43.218;27.908;2023-01-26T00:09:49;101770.41;;;3.86;100.00
9750;BME280;4914;43.218;27.908;2023-01-26T00:12:16;101765.97;;;3.88;100.00
9750;BME280;4914;43.218;27.908;2023-01-26T00:14:43;101767.09;;;3.79;100.00
9750;BME280;4914;43.218;27.908;2023-01-26T00:17:19;101771.81;;;3.68;100.00
9750;BME280;4914;43.218;27.908;2023-01-26T00:19:55;101762.91;;;3.74;100.00
9750;BME280;4914;43.218;27.908;2023-01-26T00:22:24;101765.72;;;3.68;100.00
9750;BME280;4914;43.218;27.908;2023-01-26T00:24:51;101758.19;;;3.56;100.00
9750;BME280;4914;43.218;27.908;2023-01-26T00:27:18;101750.44;;;3.51;100.00
9750;BME280;4914;43.218;27.908;2023-01-26T00:29:45;101752.84;;;3.59;100.00
9750;BME280;4914;43.218;27.908;2023-01-26T00:32:12;101755.53;;;3.57;100.00
9750;BME280;4914;43.218;27.908;2023-01-26T00:34:40;101744.13;;;3.58;100.00
9750;BME280;4914;43.218;27.908;2023-01-26T00:37:07;101745.59;;;3.37;100.00
9750;BME280;4914;43.218;27.908;2023-01-26T00:39:34;101745.59;;;3.67;100.00
9750;BME280;4914;43.218;27.908;2023-01-26T00:42:01;101742.34;;;3.59;100.00
9750;BME280;4914;43.218;27.908;2023-01-26T00:44:36;101737.19;;;3.56;100.00
9750;BME280;4914;43.218;27.908;2023-01-26T00:47:04;101730.41;;;3.48;100.00
9750;BME280;4914;43.218;27.908;2023-01-26T00:49:31;101734.84;;;3.46;100.00
9750;BME280;4914;43.218;27.908;2023-01-26T00:52:00;101729.13;;;3.32;100.00
9750;BME280;4914;43.218;27.908;2023-01-26T00:54:27;101727.34;;;3.34;100.00
9750;BME280;4914;43.218;27.908;2023-01-26T00:56:54;101727.22;;;3.67;100.00
9750;BME280;4914;43.218;27.908;2023-01-26T00:59:21;101728.66;;;3.77;100.00
9750;BME280;4914;43.218;27.908;2023-01-26T01:01:48;101721.53;;;3.53;100.00
9750;BME280;4914;43.218;27.908;2023-01-26T01:04:15;101720.56;;;3.55;100.00
9750;BME280;4914;43.218;27.908;2023-01-26T01:06:42;101712.75;;;3.54;100.00
9750;BME280;4914;43.218;27.908;2023-01-26T01:09:11;101709.28;;;3.51;100.00
9750;BME280;4914;43.218;27.908;2023-01-26T01:11:38;101705.59;;;3.59;100.00
9750;BME280;4914;43.218;27.908;2023-01-26T01:14:05;101705.91;;;3.76;100.00
9750;BME280;4914;43.218;27.908;2023-01-26T01:16:32;101700.50;;;3.80;100.00
9750;BME280;4914;43.218;27.908;2023-01-26T01:18:58;101697.44;;;3.94;100.00
9750;BME280;4914;43.218;27.908;2023-01-26T01:21:25;101701.19;;;3.87;100.00
9750;BME280;4914;43.218;27.908;2023-01-26T01:23:52;101704.03;;;4.07;100.00
9750;BME280;4914;43.218;27.908;2023-01-26T01:26:20;101698.13;;;4.01;100.00
9750;BME280;4914;43.218;27.908;2023-01-26T01:28:47;101705.31;;;3.94;100.00
9750;BME280;4914;43.218;27.908;2023-01-26T01:31:15;101703.84;;;3.85;100.00
9750;BME280;4914;43.218;27.908;2023-01-26T01:33:42;101703.22;;;3.79;100.00
9750;BME280;4914;43.218;27.908;2023-01-26T01:36:11;101692.69;;;3.51;100.00
9750;BME280;4914;43.218;27.908;2023-01-26T01:38:38;101699.69;;;3.50;100.00
9750;BME280;4914;43.218;27.908;2023-01-26T01:41:06;101697.06;;;3.50;100.00
9750;BME280;4914;43.218;27.908;2023-01-26T01:43:35;101696.25;;;3.50;100.00
9750;BME280;4914;43.218;27.908;2023-01-26T01:46:04;101691.81;;;3.50;100.00
9750;BME280;4914;43.218;27.908;2023-01-26T01:48:37;101693.66;;;3.48;100.00
9750;BME280;4914;43.218;27.908;2023-01-26T01:51:07;101694.44;;;3.50;100.00
9750;BME280;4914;43.218;27.908;2023-01-26T01:53:40;101690.84;;;3.55;100.00
9750;BME280;4914;43.218;27.908;2023-01-26T01:56:11;101693.47;;;3.55;100.00
9750;BME280;4914;43.218;27.908;2023-01-26T01:58:41;101698.72;;;3.55;100.00
9750;BME280;4914;43.218;27.908;2023-01-26T02:01:09;101689.06;;;3.55;100.00
9750;BME280;4914;43.218;27.908;2023-01-26T02:03:37;101693.47;;;3.55;100.00
9750;BME280;4914;43.218;27.908;2023-01-26T02:06:08;101684.66;;;3.56;100.00
9750;BME280;4914;43.218;27.908;2023-01-26T02:08:39;101684.66;;;3.56;100.00
9750;BME280;4914;43.218;27.908;2023-01-26T02:11:09;101682.56;;;3.67;100.00
9750;BME280;4914;43.218;27.908;2023-01-26T02:13:37;101680.09;;;3.62;100.00
9750;BME280;4914;43.218;27.908;2023-01-26T02:16:06;101670.56;;;3.60;100.00
9750;BME280;4914;43.218;27.908;2023-01-26T02:18:33;101667.09;;;3.58;100.00
9750;BME280;4914;43.218;27.908;2023-01-26T02:21:02;101654.00;;;3.56;100.00
9750;BME280;4914;43.218;27.908;2023-01-26T02:23:37;101659.22;;;3.58;100.00
9750;BME280;4914;43.218;27.908;2023-01-26T02:26:10;101657.31;;;3.63;100.00
9750;BME280;4914;43.218;27.908;2023-01-26T02:28:38;101647.72;;;3.62;100.00
9750;BME280;4914;43.218;27.908;2023-01-26T02:31:06;101631.97;;;3.62;100.00
9750;BME280;4914;43.218;27.908;2023-01-26T02:33:33;101638.81;;;3.66;100.00
9750;BME280;4914;43.218;27.908;2023-01-26T02:36:01;101632.06;;;3.59;100.00
9750;BME280;4914;43.218;27.908;2023-01-26T02:38:34;101633.06;;;3.55;100.00
9750;BME280;4914;43.218;27.908;2023-01-26T02:41:05;101633.16;;;3.51;100.00
9750;BME280;4914;43.218;27.908;2023-01-26T02:43:34;101628.81;;;3.50;100.00
9750;BME280;4914;43.218;27.908;2023-01-26T02:46:00;101617.66;;;3.44;100.00
9750;BME280;4914;43.218;27.908;2023-01-26T02:48:27;101626.47;;;3.41;100.00
9750;BME280;4914;43.218;27.908;2023-01-26T02:51:11;101634.41;;;3.40;100.00
9750;BME280;4914;43.218;27.908;2023-01-26T02:53:37;101632.84;;;3.34;100.00
9750;BME280;4914;43.218;27.908;2023-01-26T02:56:05;101632.84;;;3.34;100.00
9750;BME280;4914;43.218;27.908;2023-01-26T02:58:31;101625.81;;;3.35;100.00
9750;BME280;4914;43.218;27.908;2023-01-26T03:00:59;101629.19;;;3.38;100.00
9750;BME280;4914;43.218;27.908;2023-01-26T03:03:27;101629.09;;;3.41;100.00
9750;BME280;4914;43.218;27.908;2023-01-26T03:06:09;101628.22;;;3.41;100.00
9750;BME280;4914;43.218;27.908;2023-01-26T03:08:37;101625.69;;;3.39;100.00
9750;BME280;4914;43.218;27.908;2023-01-26T03:11:05;101620.03;;;3.51;100.00
9750;BME280;4914;43.218;27.908;2023-01-26T03:13:33;101625.19;;;3.55;100.00
9750;BME280;4914;43.218;27.908;2023-01-26T03:16:04;101626.75;;;3.60;100.00
9750;BME280;4914;43.218;27.908;2023-01-26T03:18:33;101627.56;;;3.62;100.00
9750;BME280;4914;43.218;27.908;2023-01-26T03:21:17;101614.97;;;3.73;100.00
9750;BME280;4914;43.218;27.908;2023-01-26T03:24:02;101624.69;;;3.70;100.00
9750;BME280;4914;43.218;27.908;2023-01-26T03:26:47;101611.41;;;3.74;100.00
9750;BME280;4914;43.218;27.908;2023-01-26T03:29:32;101611.16;;;3.82;100.00
9750;BME280;4914;43.218;27.908;2023-01-26T03:32:00;101615.41;;;3.86;100.00
9750;BME280;4914;43.218;27.908;2023-01-26T03:34:27;101614.38;;;3.90;100.00
9750;BME280;4914;43.218;27.908;2023-01-26T03:36:55;101616.06;;;3.92;100.00
9750;BME280;4914;43.218;27.908;2023-01-26T03:39:21;101610.75;;;3.94;100.00
9750;BME280;4914;43.218;27.908;2023-01-26T03:42:07;101610.81;;;3.92;100.00
9750;BME280;4914;43.218;27.908;2023-01-26T03:44:52;101597.75;;;3.89;100.00
9750;BME280;4914;43.218;27.908;2023-01-26T03:47:37;101605.78;;;3.85;100.00
9750;BME280;4914;43.218;27.908;2023-01-26T03:50:22;101593.94;;;3.73;100.00
9750;BME280;4914;43.218;27.908;2023-01-26T03:53:13;101616.94;;;3.93;100.00
9750;BME280;4914;43.218;27.908;2023-01-26T03:55:57;101625.59;;;3.95;100.00
9750;BME280;4914;43.218;27.908;2023-01-26T03:58:41;101621.22;;;3.95;100.00
9750;BME280;4914;43.218;27.908;2023-01-26T04:01:08;101613.75;;;4.08;100.00
9750;BME280;4914;43.218;27.908;2023-01-26T04:03:36;101619.50;;;4.19;100.00
9750;BME280;4914;43.218;27.908;2023-01-26T04:06:21;101611.63;;;4.19;100.00
9750;BME280;4914;43.218;27.908;2023-01-26T04:09:04;101608.19;;;4.17;100.00
9750;BME280;4914;43.218;27.908;2023-01-26T04:11:31;101611.81;;;4.13;100.00
9750;BME280;4914;43.218;27.908;2023-01-26T04:13:58;101609.19;;;4.13;100.00
9750;BME280;4914;43.218;27.908;2023-01-26T04:16:42;101610.34;;;4.06;100.00
9750;BME280;4914;43.218;27.908;2023-01-26T04:19:27;101599.75;;;4.08;100.00
9750;BME280;4914;43.218;27.908;2023-01-26T04:22:12;101597.09;;;4.09;100.00
9750;BME280;4914;43.218;27.908;2023-01-26T04:24:39;101597.91;;;4.11;100.00
9750;BME280;4914;43.218;27.908;2023-01-26T04:27:06;101606.69;;;4.10;100.00
9750;BME280;4914;43.218;27.908;2023-01-26T04:29:33;101598.69;;;4.13;100.00
9750;BME280;4914;43.218;27.908;2023-01-26T04:32:00;101606.03;;;4.28;100.00
9750;BME280;4914;43.218;27.908;2023-01-26T04:34:28;101591.19;;;4.27;100.00
9750;BME280;4914;43.218;27.908;2023-01-26T04:36:55;101594.94;;;4.20;100.00
9750;BME280;4914;43.218;27.908;2023-01-26T04:39:21;101597.63;;;4.19;100.00
9750;BME280;4914;43.218;27.908;2023-01-26T04:41:48;101594.94;;;4.20;100.00
9750;BME280;4914;43.218;27.908;2023-01-26T04:44:15;101599.22;;;4.48;100.00
9750;BME280;4914;43.218;27.908;2023-01-26T04:46:42;101601.69;;;4.52;100.00
9750;BME280;4914;43.218;27.908;2023-01-26T04:49:10;101599.91;;;4.53;100.00
9750;BME280;4914;43.218;27.908;2023-01-26T04:51:38;101605.66;;;4.39;100.00
9750;BME280;4914;43.218;27.908;2023-01-26T04:54:05;101591.25;;;4.26;100.00
9750;BME280;4914;43.218;27.908;2023-01-26T04:56:34;101593.75;;;4.29;100.00
9750;BME280;4914;43.218;27.908;2023-01-26T04:59:03;101594.66;;;4.53;100.00
9750;BME280;4914;43.218;27.908;2023-01-26T05:01:30;101597.81;;;4.37;100.00
9750;BME280;4914;43.218;27.908;2023-01-26T05:03:58;101601.38;;;4.36;100.00
9750;BME280;4914;43.218;27.908;2023-01-26T05:06:25;101589.69;;;4.20;100.00
9750;BME280;4914;43.218;27.908;2023-01-26T05:08:53;101586.47;;;4.12;100.00
9750;BME280;4914;43.218;27.908;2023-01-26T05:11:20;101583.97;;;4.08;100.00
9750;BME280;4914;43.218;27.908;2023-01-26T05:13:48;101595.47;;;4.05;100.00
9750;BME280;4914;43.218;27.908;2023-01-26T05:16:15;101577.97;;;4.04;100.00
9750;BME280;4914;43.218;27.908;2023-01-26T05:18:42;101581.75;;;3.97;100.00
9750;BME280;4914;43.218;27.908;2023-01-26T05:21:09;101583.75;;;3.89;100.00
9750;BME280;4914;43.218;27.908;2023-01-26T05:23:37;101581.38;;;3.83;100.00
9750;BME280;4914;43.218;27.908;2023-01-26T05:26:06;101587.00;;;3.97;100.00
9750;BME280;4914;43.218;27.908;2023-01-26T05:28:34;101581.84;;;3.94;100.00
9750;BME280;4914;43.218;27.908;2023-01-26T05:31:01;101596.09;;;3.87;100.00
9750;BME280;4914;43.218;27.908;2023-01-26T05:33:28;101584.19;;;3.77;100.00
9750;BME280;4914;43.218;27.908;2023-01-26T05:35:55;101592.97;;;3.76;100.00
9750;BME280;4914;43.218;27.908;2023-01-26T05:38:23;101590.84;;;3.87;100.00
9750;BME280;4914;43.218;27.908;2023-01-26T05:40:50;101593.44;;;3.88;100.00
9750;BME280;4914;43.218;27.908;2023-01-26T05:43:18;101593.94;;;3.73;100.00
9750;BME280;4914;43.218;27.908;2023-01-26T05:45:45;101594.25;;;3.64;100.00
9750;BME280;4914;43.218;27.908;2023-01-26T05:48:12;101596.09;;;3.61;100.00
9750;BME280;4914;43.218;27.908;2023-01-26T05:50:39;101593.59;;;3.58;100.00
9750;BME280;4914;43.218;27.908;2023-01-26T05:53:06;101591.91;;;3.55;100.00
9750;BME280;4914;43.218;27.908;2023-01-26T05:55:33;101588.72;;;3.45;100.00
9750;BME280;4914;43.218;27.908;2023-01-26T05:58:00;101601.03;;;3.43;100.00
9750;BME280;4914;43.218;27.908;2023-01-26T06:00:28;101588.78;;;3.44;100.00
9750;BME280;4914;43.218;27.908;2023-01-26T06:02:55;101597.09;;;3.57;100.00
9750;BME280;4914;43.218;27.908;2023-01-26T06:05:22;101593.69;;;3.55;100.00
9750;BME280;4914;43.218;27.908;2023-01-26T06:07:49;101588.13;;;3.64;100.00
9750;BME280;4914;43.218;27.908;2023-01-26T06:10:16;101592.88;;;3.79;100.00
9750;BME280;4914;43.218;27.908;2023-01-26T06:12:43;101588.31;;;3.84;100.00
9750;BME280;4914;43.218;27.908;2023-01-26T06:15:10;101591.63;;;3.89;100.00
9750;BME280;4914;43.218;27.908;2023-01-26T06:17:39;101595.59;;;4.02;100.00
9750;BME280;4914;43.218;27.908;2023-01-26T06:20:08;101593.50;;;4.12;100.00
9750;BME280;4914;43.218;27.908;2023-01-26T06:22:35;101589.25;;;4.08;100.00
9750;BME280;4914;43.218;27.908;2023-01-26T06:25:03;101583.63;;;4.18;100.00
9750;BME280;4914;43.218;27.908;2023-01-26T06:27:30;101577.34;;;4.22;100.00
9750;BME280;4914;43.218;27.908;2023-01-26T06:29:58;101577.03;;;4.31;100.00
9750;BME280;4914;43.218;27.908;2023-01-26T06:32:25;101576.78;;;4.37;100.00
9750;BME280;4914;43.218;27.908;2023-01-26T06:34:53;101575.06;;;4.36;100.00
9750;BME280;4914;43.218;27.908;2023-01-26T06:37:20;101571.88;;;4.28;100.00
9750;BME280;4914;43.218;27.908;2023-01-26T06:39:47;101569.38;;;5.39;100.00
9750;BME280;4914;43.218;27.908;2023-01-26T06:42:14;101571.25;;;6.60;100.00
9750;BME280;4914;43.218;27.908;2023-01-26T06:44:41;101572.16;;;7.15;100.00
9750;BME280;4914;43.218;27.908;2023-01-26T06:47:07;101571.22;;;7.70;100.00
9750;BME280;4914;43.218;27.908;2023-01-26T06:49:34;101575.41;;;7.92;100.00
9750;BME280;4914;43.218;27.908;2023-01-26T06:52:19;101566.00;;;8.70;100.00
9750;BME280;4914;43.218;27.908;2023-01-26T06:54:47;101572.59;;;8.12;100.00
9750;BME280;4914;43.218;27.908;2023-01-26T06:57:14;101573.94;;;9.02;100.00
9750;BME280;4914;43.218;27.908;2023-01-26T06:59:41;101568.09;;;8.48;100.00
9750;BME280;4914;43.218;27.908;2023-01-26T07:02:15;101567.31;;;9.10;100.00
9750;BME280;4914;43.218;27.908;2023-01-26T07:04:42;101544.13;;;9.14;100.00
9750;BME280;4914;43.218;27.908;2023-01-26T07:07:10;101548.41;;;9.16;100.00
9750;BME280;4914;43.218;27.908;2023-01-26T07:09:37;101546.66;;;9.62;100.00
9750;BME280;4914;43.218;27.908;2023-01-26T07:12:05;101552.16;;;9.12;100.00
9750;BME280;4914;43.218;27.908;2023-01-26T07:14:32;101549.41;;;10.49;100.00
9750;BME280;4914;43.218;27.908;2023-01-26T07:16:59;101543.44;;;9.72;100.00
9750;BME280;4914;43.218;27.908;2023-01-26T07:19:26;101541.44;;;10.63;100.00
9750;BME280;4914;43.218;27.908;2023-01-26T07:21:54;101540.56;;;11.18;100.00
9750;BME280;4914;43.218;27.908;2023-01-26T07:24:23;101539.63;;;10.78;100.00
9750;BME280;4914;43.218;27.908;2023-01-26T07:26:50;101531.59;;;11.06;95.36
9750;BME280;4914;43.218;27.908;2023-01-26T07:29:17;101536.59;;;12.29;78.92
9750;BME280;4914;43.218;27.908;2023-01-26T07:31:44;101536.25;;;11.83;77.58
9750;BME280;4914;43.218;27.908;2023-01-26T07:34:11;101534.97;;;12.77;74.77
9750;BME280;4914;43.218;27.908;2023-01-26T07:36:38;101533.31;;;12.26;73.98
9750;BME280;4914;43.218;27.908;2023-01-26T07:39:05;101530.03;;;11.16;81.03
9750;BME280;4914;43.218;27.908;2023-01-26T07:41:34;101522.53;;;12.14;76.67
9750;BME280;4914;43.218;27.908;2023-01-26T07:44:01;101520.16;;;11.85;78.72
9750;BME280;4914;43.218;27.908;2023-01-26T07:46:29;101515.63;;;12.12;77.09
9750;BME280;4914;43.218;27.908;2023-01-26T07:48:56;101507.31;;;11.91;77.36
9750;BME280;4914;43.218;27.908;2023-01-26T07:51:22;101504.84;;;12.39;76.10
9750;BME280;4914;43.218;27.908;2023-01-26T07:53:49;101499.66;;;13.23;69.81
9750;BME280;4914;43.218;27.908;2023-01-26T07:56:17;101485.34;;;13.24;64.88
9750;BME280;4914;43.218;27.908;2023-01-26T07:58:49;101480.72;;;13.49;64.39
9750;BME280;4914;43.218;27.908;2023-01-26T08:01:16;101478.88;;;14.53;61.87
9750;BME280;4914;43.218;27.908;2023-01-26T08:03:43;101480.69;;;14.64;59.45
9750;BME280;4914;43.218;27.908;2023-01-26T08:06:11;101480.81;;;14.51;60.05
9750;BME280;4914;43.218;27.908;2023-01-26T08:08:38;101492.81;;;14.79;58.00
9750;BME280;4914;43.218;27.908;2023-01-26T08:11:05;101485.50;;;15.35;54.98
9750;BME280;4914;43.218;27.908;2023-01-26T08:13:32;101487.34;;;14.80;56.95
9750;BME280;4914;43.218;27.908;2023-01-26T08:16:02;101488.69;;;13.73;59.80
9750;BME280;4914;43.218;27.908;2023-01-26T08:18:29;101488.44;;;12.94;64.17
9750;BME280;4914;43.218;27.908;2023-01-26T08:20:57;101494.81;;;12.42;68.92
9750;BME280;4914;43.218;27.908;2023-01-26T08:23:25;101507.59;;;11.47;80.63
9750;BME280;4914;43.218;27.908;2023-01-26T08:25:53;101514.94;;;10.76;89.90
9750;BME280;4914;43.218;27.908;2023-01-26T08:28:20;101512.78;;;9.82;100.00
9750;BME280;4914;43.218;27.908;2023-01-26T08:30:47;101514.19;;;9.43;100.00
9750;BME280;4914;43.218;27.908;2023-01-26T08:33:15;101524.59;;;9.01;100.00
9750;BME280;4914;43.218;27.908;2023-01-26T08:35:42;101530.91;;;8.34;100.00
9750;BME280;4914;43.218;27.908;2023-01-26T08:38:08;101522.38;;;7.95;100.00
9750;BME280;4914;43.218;27.908;2023-01-26T08:40:35;101517.94;;;7.78;100.00
9750;BME280;4914;43.218;27.908;2023-01-26T08:43:03;101511.56;;;7.65;100.00
9750;BME280;4914;43.218;27.908;2023-01-26T08:45:30;101512.66;;;7.61;100.00
9750;BME280;4914;43.218;27.908;2023-01-26T08:47:57;101504.63;;;7.45;100.00
9750;BME280;4914;43.218;27.908;2023-01-26T08:50:26;101500.28;;;7.44;100.00
9750;BME280;4914;43.218;27.908;2023-01-26T08:52:54;101497.50;;;7.11;100.00
9750;BME280;4914;43.218;27.908;2023-01-26T08:55:22;101496.47;;;6.96;100.00
9750;BME280;4914;43.218;27.908;2023-01-26T08:57:51;101490.53;;;6.91;100.00
9750;BME280;4914;43.218;27.908;2023-01-26T09:00:20;101483.28;;;6.78;100.00
9750;BME280;4914;43.218;27.908;2023-01-26T09:02:47;101477.88;;;6.62;100.00
9750;BME280;4914;43.218;27.908;2023-01-26T09:05:14;101471.19;;;6.55;100.00
9750;BME280;4914;43.218;27.908;2023-01-26T09:07:43;101463.75;;;6.63;100.00
9750;BME280;4914;43.218;27.908;2023-01-26T09:10:10;101469.22;;;6.77;100.00
9750;BME280;4914;43.218;27.908;2023-01-26T09:12:37;101459.50;;;6.96;100.00
9750;BME280;4914;43.218;27.908;2023-01-26T09:15:05;101458.34;;;7.38;100.00
9750;BME280;4914;43.218;27.908;2023-01-26T09:17:32;101454.56;;;7.25;100.00
9750;BME280;4914;43.218;27.908;2023-01-26T09:19:59;101457.72;;;7.33;100.00
9750;BME280;4914;43.218;27.908;2023-01-26T09:22:26;101441.91;;;7.49;100.00
9750;BME280;4914;43.218;27.908;2023-01-26T09:24:54;101452.09;;;7.56;100.00
9750;BME280;4914;43.218;27.908;2023-01-26T09:27:20;101445.09;;;7.21;100.00
9750;BME280;4914;43.218;27.908;2023-01-26T09:29:47;101431.72;;;6.89;100.00
9750;BME280;4914;43.218;27.908;2023-01-26T09:32:14;101426.53;;;6.69;100.00
9750;BME280;4914;43.218;27.908;2023-01-26T09:34:41;101416.13;;;6.66;100.00
9750;BME280;4914;43.218;27.908;2023-01-26T09:37:08;101415.69;;;6.75;100.00
9750;BME280;4914;43.218;27.908;2023-01-26T09:39:35;101410.97;;;6.63;100.00
9750;BME280;4914;43.218;27.908;2023-01-26T09:42:20;101408.41;;;6.80;100.00
9750;BME280;4914;43.218;27.908;2023-01-26T09:44:56;101405.56;;;6.66;100.00
9750;BME280;4914;43.218;27.908;2023-01-26T09:47:30;101401.72;;;6.54;100.00
9750;BME280;4914;43.218;27.908;2023-01-26T09:50:03;101391.78;;;6.42;100.00
9750;BME280;4914;43.218;27.908;2023-01-26T09:52:43;101383.56;;;6.30;100.00
9750;BME280;4914;43.218;27.908;2023-01-26T09:55:19;101385.72;;;6.22;100.00
9750;BME280;4914;43.218;27.908;2023-01-26T09:57:50;101383.34;;;6.16;100.00
9750;BME280;4914;43.218;27.908;2023-01-26T10:00:22;101370.97;;;6.18;100.00
9750;BME280;4914;43.218;27.908;2023-01-26T10:03:04;101362.41;;;6.31;100.00
9750;BME280;4914;43.218;27.908;2023-01-26T10:05:41;101347.56;;;6.29;100.00
9750;BME280;4914;43.218;27.908;2023-01-26T10:08:13;101350.34;;;6.26;100.00
9750;BME280;4914;43.218;27.908;2023-01-26T10:10:45;101351.06;;;6.29;100.00
9750;BME280;4914;43.218;27.908;2023-01-26T10:13:16;101348.13;;;6.35;100.00
9750;BME280;4914;43.218;27.908;2023-01-26T10:15:46;101342.41;;;6.44;100.00
9750;BME280;4914;43.218;27.908;2023-01-26T10:18:18;101339.91;;;6.77;100.00
9750;BME280;4914;43.218;27.908;2023-01-26T10:20:50;101339.44;;;6.86;100.00
9750;BME280;4914;43.218;27.908;2023-01-26T10:23:22;101313.97;;;6.68;100.00
9750;BME280;4914;43.218;27.908;2023-01-26T10:25:50;101326.41;;;6.83;100.00
9750;BME280;4914;43.218;27.908;2023-01-26T10:28:25;101312.59;;;7.13;100.00
9750;BME280;4914;43.218;27.908;2023-01-26T10:30:53;101305.16;;;7.36;100.00
9750;BME280;4914;43.218;27.908;2023-01-26T10:33:24;101290.53;;;7.47;100.00
9750;BME280;4914;43.218;27.908;2023-01-26T10:35:52;101285.72;;;7.70;100.00
9750;BME280;4914;43.218;27.908;2023-01-26T10:38:26;101285.41;;;7.76;100.00
9750;BME280;4914;43.218;27.908;2023-01-26T10:40:54;101278.06;;;7.81;100.00
9750;BME280;4914;43.218;27.908;2023-01-26T10:43:23;101282.16;;;8.03;100.00
9750;BME280;4914;43.218;27.908;2023-01-26T10:45:50;101281.03;;;8.07;100.00
9750;BME280;4914;43.218;27.908;2023-01-26T10:48:19;101276.00;;;8.18;100.00
9750;BME280;4914;43.218;27.908;2023-01-26T10:50:46;101275.47;;;8.27;100.00
9750;BME280;4914;43.218;27.908;2023-01-26T10:53:15;101281.41;;;8.32;100.00
9750;BME280;4914;43.218;27.908;2023-01-26T10:55:58;101278.75;;;8.32;100.00
9750;BME280;4914;43.218;27.908;2023-01-26T10:58:45;101269.25;;;8.28;100.00
9750;BME280;4914;43.218;27.908;2023-01-26T11:01:13;101276.09;;;8.32;100.00
9750;BME280;4914;43.218;27.908;2023-01-26T11:03:58;101257.59;;;8.32;100.00
9750;BME280;4914;43.218;27.908;2023-01-26T11:06:27;101264.91;;;8.27;100.00
9750;BME280;4914;43.218;27.908;2023-01-26T11:09:07;101261.59;;;8.39;100.00
9750;BME280;4914;43.218;27.908;2023-01-26T11:11:34;101261.69;;;8.38;100.00
9750;BME280;4914;43.218;27.908;2023-01-26T11:14:14;101261.69;;;8.38;100.00
9750;BME280;4914;43.218;27.908;2023-01-26T11:16:45;101256.03;;;8.28;100.00
9750;BME280;4914;43.218;27.908;2023-01-26T11:19:25;101266.63;;;8.28;100.00
9750;BME280;4914;43.218;27.908;2023-01-26T11:21:58;101270.63;;;8.35;100.00
9750;BME280;4914;43.218;27.908;2023-01-26T11:24:33;101260.47;;;8.43;100.00
9750;BME280;4914;43.218;27.908;2023-01-26T11:27:20;101253.13;;;8.48;100.00
9750;BME280;4914;43.218;27.908;2023-01-26T11:30:02;101258.50;;;8.47;100.00
9750;BME280;4914;43.218;27.908;2023-01-26T11:32:37;101259.75;;;8.55;100.00
9750;BME280;4914;43.218;27.908;2023-01-26T11:35:14;101268.53;;;8.56;100.00
9750;BME280;4914;43.218;27.908;2023-01-26T11:37:43;101258.31;;;8.50;100.00
9750;BME280;4914;43.218;27.908;2023-01-26T11:40:24;101250.56;;;8.47;100.00
9750;BME280;4914;43.218;27.908;2023-01-26T11:46:03;101246.78;;;8.51;100.00
9750;BME280;4914;43.218;27.908;2023-01-26T11:48:43;101242.50;;;8.78;100.00
9750;BME280;4914;43.218;27.908;2023-01-26T11:51:19;101237.91;;;8.96;100.00
9750;BME280;4914;43.218;27.908;2023-01-26T11:54:08;101237.13;;;8.80;100.00
9750;BME280;4914;43.218;27.908;2023-01-26T11:56:44;101247.53;;;8.83;100.00
9750;BME280;4914;43.218;27.908;2023-01-26T11:59:16;101249.22;;;8.84;100.00
9750;BME280;4914;43.218;27.908;2023-01-26T12:01:51;101242.16;;;8.98;100.00
9750;BME280;4914;43.218;27.908;2023-01-26T12:04:21;101238.88;;;9.09;100.00
9750;BME280;4914;43.218;27.908;2023-01-26T12:06:52;101229.34;;;9.21;100.00
9750;BME280;4914;43.218;27.908;2023-01-26T12:09:23;101224.78;;;9.23;100.00
9750;BME280;4914;43.218;27.908;2023-01-26T12:12:00;101222.22;;;9.21;100.00
9750;BME280;4914;43.218;27.908;2023-01-26T12:14:35;101220.34;;;9.23;100.00
9750;BME280;4914;43.218;27.908;2023-01-26T12:17:25;101228.28;;;9.37;100.00
9750;BME280;4914;43.218;27.908;2023-01-26T12:19:58;101218.88;;;9.46;100.00
9750;BME280;4914;43.218;27.908;2023-01-26T12:22:32;101219.84;;;9.16;100.00
9750;BME280;4914;43.218;27.908;2023-01-26T12:25:06;101218.63;;;9.08;100.00
9750;BME280;4914;43.218;27.908;2023-01-26T12:27:42;101221.09;;;9.11;100.00
9750;BME280;4914;43.218;27.908;2023-01-26T12:30:23;101211.25;;;9.13;100.00
9750;BME280;4914;43.218;27.908;2023-01-26T12:32:54;101217.19;;;9.02;100.00
9750;BME280;4914;43.218;27.908;2023-01-26T12:35:41;101226.94;;;9.02;100.00
9750;BME280;4914;43.218;27.908;2023-01-26T12:38:13;101221.91;;;8.83;100.00
9750;BME280;4914;43.218;27.908;2023-01-26T12:40:53;101227.31;;;8.96;100.00
9750;BME280;4914;43.218;27.908;2023-01-26T12:43:37;101202.63;;;8.95;100.00
9750;BME280;4914;43.218;27.908;2023-01-26T12:46:09;101201.50;;;9.13;100.00
9750;BME280;4914;43.218;27.908;2023-01-26T12:48:41;101196.50;;;9.09;100.00
9750;BME280;4914;43.218;27.908;2023-01-26T12:51:15;101208.22;;;9.05;100.00
9750;BME280;4914;43.218;27.908;2023-01-26T12:53:50;101193.34;;;9.02;100.00
9750;BME280;4914;43.218;27.908;2023-01-26T12:56:20;101194.31;;;9.01;100.00
9750;BME280;4914;43.218;27.908;2023-01-26T12:58:50;101188.91;;;9.03;100.00
9750;BME280;4914;43.218;27.908;2023-01-26T13:01:20;101191.38;;;9.20;100.00
9750;BME280;4914;43.218;27.908;2023-01-26T13:03:53;101187.69;;;8.94;100.00
9750;BME280;4914;43.218;27.908;2023-01-26T13:06:23;101187.97;;;9.04;100.00
9750;BME280;4914;43.218;27.908;2023-01-26T13:09:01;101181.91;;;8.88;100.00
9750;BME280;4914;43.218;27.908;2023-01-26T13:11:42;101167.72;;;8.89;100.00
9750;BME280;4914;43.218;27.908;2023-01-26T13:14:33;101161.69;;;9.01;100.00
9750;BME280;4914;43.218;27.908;2023-01-26T13:35:21;101119.75;;;9.07;100.00
9750;BME280;4914;43.218;27.908;2023-01-26T13:37:54;101124.19;;;9.21;100.00